createdAt,value
2018-07-04T00:00:49.714Z,5.90
2018-07-04T00:04:04.318Z,6.90
2018-07-04T00:07:19.022Z,9.00
2018-07-04T00:10:27.438Z,6.67
2018-07-04T00:13:42.136Z,7.10
2018-07-04T00:21:30.534Z,6.93
2018-07-04T00:24:45.036Z,6.80
2018-07-04T00:27:59.783Z,7.00
2018-07-04T00:31:08.457Z,6.83
2018-07-04T00:34:23.111Z,6.87
2018-07-04T00:37:37.647Z,8.17
2018-07-04T00:43:56.544Z,7.77
2018-07-04T00:50:26.787Z,6.80
2018-07-04T00:56:14.312Z,8.50
2018-07-04T01:02:32.043Z,7.47
2018-07-04T01:06:50.435Z,8.20
2018-07-04T01:10:05.215Z,8.03
2018-07-04T01:13:13.680Z,9.13
2018-07-04T01:16:28.094Z,9.47
2018-07-04T01:19:42.790Z,7.40
2018-07-04T01:22:57.417Z,8.27
2018-07-04T01:26:12.238Z,9.37
2018-07-04T01:29:20.813Z,8.20
2018-07-04T01:35:34.377Z,9.47
2018-07-04T01:41:09.220Z,9.73
2018-07-04T01:44:23.797Z,10.63
2018-07-04T01:47:32.346Z,9.33
2018-07-04T01:50:40.990Z,9.00
2018-07-04T01:58:03.243Z,10.33
2018-07-04T02:01:17.943Z,12.57
2018-07-04T02:04:32.662Z,10.47
2018-07-04T02:07:47.298Z,11.00
2018-07-04T02:11:01.778Z,10.67
2018-07-04T02:14:16.582Z,10.53
2018-07-04T02:17:31.251Z,11.37
2018-07-04T02:20:46.023Z,12.87
2018-07-04T02:26:59.726Z,11.77
2018-07-04T02:30:14.439Z,12.70
2018-07-04T02:33:23.125Z,13.83
2018-07-04T02:40:18.971Z,14.80
2018-07-04T02:43:27.677Z,14.10
2018-07-04T02:46:42.366Z,15.60
2018-07-04T02:49:56.937Z,14.57
2018-07-04T02:53:11.675Z,13.97
2018-07-04T02:56:26.375Z,13.50
2018-07-04T02:59:40.993Z,14.57
2018-07-04T03:02:55.436Z,13.57
2018-07-04T03:09:27.722Z,15.40
2018-07-04T03:12:42.332Z,14.83
2018-07-04T03:15:57.118Z,15.43
2018-07-04T03:19:11.767Z,15.43
2018-07-04T03:22:26.486Z,15.67
2018-07-04T03:25:35.047Z,16.43
2018-07-04T03:31:57.544Z,15.33
2018-07-04T03:35:06.267Z,15.80
2018-07-04T03:41:17.835Z,14.10
2018-07-04T03:44:32.402Z,15.63
2018-07-04T03:47:47.118Z,14.03
2018-07-04T03:51:01.718Z,15.73
2018-07-04T03:54:16.374Z,18.07
2018-07-04T03:57:31.146Z,17.73
2018-07-04T04:03:31.942Z,14.00
2018-07-04T04:06:40.550Z,14.33
2018-07-04T04:09:55.329Z,11.33
2018-07-04T04:15:05.377Z,11.50
2018-07-04T04:18:20.075Z,11.40
2018-07-04T04:22:45.799Z,12.70
2018-07-04T04:26:01.006Z,14.13
2018-07-04T04:33:37.547Z,11.30
2018-07-04T04:36:52.351Z,12.50
2018-07-04T04:40:01.033Z,14.20
2018-07-04T04:52:22.186Z,10.47
2018-07-04T04:55:36.895Z,12.00
2018-07-04T04:58:45.504Z,13.37
2018-07-04T05:04:58.914Z,13.33
2018-07-04T05:08:13.470Z,11.80
2018-07-04T05:11:28.162Z,11.57
2018-07-04T05:17:53.615Z,11.30
2018-07-04T05:21:08.424Z,12.83
2018-07-04T05:24:23.200Z,13.20
2018-07-04T05:27:37.862Z,12.37
2018-07-04T05:30:52.434Z,11.70
2018-07-04T05:34:36.878Z,13.27
2018-07-04T05:37:51.553Z,12.40
2018-07-04T05:49:30.075Z,8.03
2018-07-04T05:52:44.570Z,9.87
2018-07-04T05:55:59.197Z,9.30
2018-07-04T05:59:13.933Z,11.53
2018-07-04T06:06:52.833Z,10.27
2018-07-04T06:10:07.614Z,12.17
2018-07-04T06:13:22.271Z,10.83
2018-07-04T06:16:36.837Z,10.80
2018-07-04T06:19:51.527Z,10.67
2018-07-04T06:23:00.037Z,10.57
2018-07-04T06:29:01.467Z,9.90
2018-07-04T06:32:16.204Z,9.40
2018-07-04T06:37:18.375Z,10.23
2018-07-04T06:40:20.821Z,9.43
2018-07-04T06:43:23.689Z,7.73
2018-07-04T06:52:07.298Z,7.87
2018-07-04T06:58:11.263Z,8.33
2018-07-04T07:01:13.446Z,7.33
2018-07-04T07:09:01.670Z,8.57
2018-07-04T07:12:16.386Z,7.17
2018-07-04T07:15:24.953Z,6.97
2018-07-04T07:21:28.499Z,6.80
2018-07-04T07:24:43.102Z,7.93
2018-07-04T07:27:57.783Z,9.67
2018-07-04T07:31:12.514Z,7.80
2018-07-04T07:34:27.122Z,8.73
2018-07-04T07:43:41.007Z,6.87
2018-07-04T07:46:55.712Z,7.97
2018-07-04T07:50:10.314Z,5.97
2018-07-04T07:53:25.098Z,5.70
2018-07-04T07:56:39.722Z,6.80
2018-07-04T07:59:54.357Z,5.63
2018-07-04T08:03:09.319Z,5.80
2018-07-04T08:12:42.535Z,6.67
2018-07-04T08:15:56.922Z,5.60
2018-07-04T08:22:20.613Z,6.30
2018-07-04T08:28:38.169Z,5.67
2018-07-04T08:31:52.956Z,5.63
2018-07-04T08:35:07.654Z,7.43
2018-07-04T08:38:22.122Z,5.90
2018-07-04T08:50:24.178Z,6.67
2018-07-04T08:53:38.891Z,4.93
2018-07-04T08:56:53.561Z,4.83
2018-07-04T09:00:08.289Z,5.03
2018-07-04T09:03:22.999Z,5.87
2018-07-04T09:06:37.534Z,4.97
2018-07-04T09:15:47.281Z,5.13
2018-07-04T09:22:04.303Z,4.80
2018-07-04T09:25:19.109Z,4.77
2018-07-04T09:28:33.801Z,4.60
2018-07-04T09:34:52.162Z,4.17
2018-07-04T09:38:06.975Z,5.33
2018-07-04T09:44:15.979Z,5.40
2018-07-04T09:47:30.435Z,6.30
2018-07-04T09:50:45.182Z,5.10
2018-07-04T09:53:59.760Z,4.80
2018-07-04T10:00:23.530Z,4.80
2018-07-04T10:03:38.258Z,4.50
2018-07-04T10:06:53.010Z,4.43
2018-07-04T10:10:07.710Z,5.27
2018-07-04T10:13:22.422Z,4.20
2018-07-04T10:16:37.146Z,5.47
2018-07-04T10:19:51.925Z,5.10
2018-07-04T10:25:38.205Z,4.67
2018-07-04T10:28:46.929Z,4.23
2018-07-04T10:34:54.698Z,3.90
2018-07-04T10:49:07.728Z,4.10
2018-07-04T10:52:22.530Z,4.13
2018-07-04T10:55:37.298Z,3.60
2018-07-04T10:58:51.855Z,4.70
2018-07-04T11:05:08.073Z,4.73
2018-07-04T11:08:22.706Z,4.57
2018-07-04T11:11:37.316Z,3.97
2018-07-04T11:14:52.086Z,5.03
2018-07-04T11:18:06.685Z,5.47
2018-07-04T11:21:21.243Z,6.23
2018-07-04T11:27:52.243Z,3.97
2018-07-04T11:31:06.974Z,4.67
2018-07-04T11:34:15.654Z,5.10
2018-07-04T11:37:30.388Z,5.00
2018-07-04T11:40:45.001Z,5.40
2018-07-04T11:43:59.724Z,5.20
2018-07-04T11:47:02.174Z,5.23
2018-07-04T11:50:39.641Z,5.07
2018-07-04T11:53:41.825Z,5.23
2018-07-04T11:56:44.314Z,4.27
2018-07-04T11:59:46.775Z,4.47
2018-07-04T12:02:48.989Z,4.57
2018-07-04T12:05:57.799Z,4.40
2018-07-04T12:12:00.986Z,4.93
2018-07-04T12:26:59.493Z,8.00
2018-07-04T12:30:01.681Z,4.57
2018-07-04T12:42:15.516Z,4.87
2018-07-04T12:45:17.711Z,5.13
2018-07-04T12:48:19.911Z,3.40
2018-07-04T12:53:36.735Z,4.37
2018-07-04T12:56:51.585Z,3.60
2018-07-04T13:03:00.738Z,5.00
2018-07-04T13:06:15.254Z,4.13
2018-07-04T13:09:30.056Z,4.67
2018-07-04T13:12:44.589Z,3.67
2018-07-04T13:18:01.894Z,5.40
2018-07-04T13:21:16.533Z,4.40
2018-07-04T13:24:31.141Z,4.10
2018-07-04T13:27:39.742Z,2.90
2018-07-04T13:38:37.579Z,4.87
2018-07-04T13:44:53.357Z,3.60
2018-07-04T13:48:08.005Z,4.37
2018-07-04T13:51:22.762Z,6.20
2018-07-04T13:54:37.345Z,3.97
2018-07-04T13:57:45.881Z,4.00
2018-07-04T14:03:46.152Z,3.93
2018-07-04T14:09:52.705Z,3.47
2018-07-04T14:13:07.470Z,4.60
2018-07-04T14:16:22.143Z,4.90
2018-07-04T14:22:33.120Z,2.67
2018-07-04T14:25:47.888Z,3.80
2018-07-04T14:31:53.310Z,4.10
2018-07-04T14:35:07.756Z,5.57
2018-07-04T14:38:16.205Z,4.17
2018-07-04T14:41:30.883Z,3.37
2018-07-04T14:44:45.578Z,3.03
2018-07-04T14:48:00.171Z,2.90
2018-07-04T14:53:47.237Z,3.60
2018-07-04T14:57:01.772Z,4.40
2018-07-04T15:00:10.588Z,3.00
2018-07-04T15:03:27.220Z,5.90
2018-07-04T15:06:41.939Z,3.27
2018-07-04T15:09:50.468Z,3.30
2018-07-04T15:13:05.143Z,4.23
2018-07-04T15:19:11.457Z,3.40
2018-07-04T15:25:16.713Z,4.30
2018-07-04T15:28:25.378Z,4.37
2018-07-04T15:34:03.709Z,4.83
2018-07-04T15:43:13.311Z,2.83
2018-07-04T15:46:28.031Z,2.60
2018-07-04T15:49:46.908Z,3.93
2018-07-04T15:56:12.606Z,3.20
2018-07-04T15:59:27.448Z,2.67
2018-07-04T16:02:42.022Z,4.97
2018-07-04T16:08:56.047Z,3.50
2018-07-04T16:12:10.643Z,2.53
2018-07-04T16:15:25.469Z,3.10
2018-07-04T16:18:33.985Z,3.93
2018-07-04T16:21:42.559Z,4.27
2018-07-04T16:24:57.290Z,3.57
2018-07-04T16:28:11.948Z,3.60
2018-07-04T16:31:20.392Z,2.77
2018-07-04T16:34:29.062Z,3.83
2018-07-04T16:40:33.376Z,3.40
2018-07-04T16:43:48.034Z,2.97
2018-07-04T16:46:56.674Z,4.63
2018-07-04T16:50:11.319Z,3.90
2018-07-04T16:53:25.926Z,3.43
2018-07-04T16:56:40.694Z,4.20
2018-07-04T17:02:47.776Z,2.60
2018-07-04T17:06:02.343Z,2.87
2018-07-04T17:09:10.953Z,4.50
2018-07-04T17:12:25.710Z,4.23
2018-07-04T17:15:40.381Z,3.07
2018-07-04T17:18:48.980Z,4.60
2018-07-04T17:22:22.381Z,2.50
2018-07-04T17:25:31.285Z,4.00
2018-07-04T17:28:45.927Z,3.27
2018-07-04T17:32:00.597Z,3.03
2018-07-04T17:35:15.318Z,3.17
2018-07-04T17:41:38.715Z,3.30
2018-07-04T17:44:53.306Z,3.80
2018-07-04T17:48:08.017Z,3.03
2018-07-04T17:54:11.040Z,4.27
2018-07-04T17:57:25.540Z,5.07
2018-07-04T18:00:40.199Z,3.03
2018-07-04T18:03:54.870Z,3.07
2018-07-04T18:10:05.944Z,3.40
2018-07-04T18:13:14.511Z,2.97
2018-07-04T18:16:29.218Z,3.53
2018-07-04T18:22:40.103Z,3.53
2018-07-04T18:25:54.765Z,2.80
2018-07-04T18:31:59.701Z,3.83
2018-07-04T18:35:14.489Z,2.23
2018-07-04T18:38:29.323Z,2.63
2018-07-04T18:41:37.894Z,4.13
2018-07-04T18:47:45.181Z,3.07
2018-07-04T18:54:05.523Z,3.00
2018-07-04T18:57:20.174Z,4.87
2018-07-04T19:03:27.866Z,3.87
2018-07-04T19:06:36.630Z,3.90
2018-07-04T19:09:51.370Z,3.43
2018-07-04T19:13:05.997Z,3.10
2018-07-04T19:16:20.657Z,3.40
2018-07-04T19:20:35.010Z,3.00
2018-07-04T19:23:49.844Z,9.30
2018-07-04T19:26:58.537Z,3.43
2018-07-04T19:36:09.106Z,3.70
2018-07-04T19:39:23.679Z,3.50
2018-07-04T19:42:38.159Z,3.70
2018-07-04T19:45:52.886Z,5.10
2018-07-04T19:49:07.565Z,2.87
2018-07-04T19:52:16.168Z,3.00
2018-07-04T19:58:34.190Z,2.23
2018-07-04T20:01:49.110Z,2.87
2018-07-04T20:05:03.738Z,2.80
2018-07-04T20:09:25.428Z,2.80
2018-07-04T20:15:27.995Z,3.30
2018-07-04T20:18:42.589Z,3.30
2018-07-04T20:21:57.337Z,3.00
2018-07-04T20:25:11.727Z,3.03
2018-07-04T20:28:26.514Z,2.73
2018-07-04T20:40:32.361Z,3.43
2018-07-04T20:43:47.107Z,3.60
2018-07-04T20:50:09.594Z,3.80
2018-07-04T20:53:24.350Z,2.70
2018-07-04T21:05:23.355Z,2.93
2018-07-04T21:08:38.026Z,3.63
2018-07-04T21:17:52.753Z,4.20
2018-07-04T21:21:07.543Z,3.23
2018-07-04T21:24:22.073Z,3.17
2018-07-04T21:27:36.755Z,2.80
2018-07-04T21:30:51.390Z,3.33
2018-07-04T21:34:05.992Z,3.23
2018-07-04T21:40:12.299Z,3.10
2018-07-04T21:43:26.890Z,5.03
2018-07-04T21:49:44.162Z,2.80
2018-07-04T21:52:58.786Z,3.93
2018-07-04T21:56:13.558Z,3.70
2018-07-04T22:07:59.630Z,3.53
2018-07-04T22:11:08.337Z,3.70
2018-07-04T22:14:23.355Z,2.90
2018-07-04T22:17:31.953Z,4.03
2018-07-04T22:20:46.590Z,3.27
2018-07-04T22:24:01.226Z,3.57
2018-07-04T22:39:07.020Z,5.17
2018-07-04T22:42:15.481Z,3.07
2018-07-04T22:45:30.166Z,3.63
2018-07-04T22:48:44.548Z,3.60
2018-07-04T22:54:53.918Z,3.57
2018-07-04T22:58:08.554Z,3.30
2018-07-04T23:01:23.307Z,3.43
2018-07-04T23:04:38.083Z,3.07
2018-07-04T23:07:52.930Z,3.27
2018-07-04T23:11:01.607Z,3.10
2018-07-04T23:17:12.641Z,6.33
2018-07-04T23:20:27.418Z,3.23
2018-07-04T23:23:42.107Z,3.50
2018-07-04T23:30:02.009Z,3.53
2018-07-04T23:36:07.262Z,4.00
2018-07-04T23:39:21.898Z,4.70
2018-07-04T23:42:36.710Z,4.50
2018-07-04T23:45:51.522Z,3.73
2018-07-04T23:55:46.090Z,4.00
